sensor_id;sensor_type;location;lat;lon;timestamp;temperature;humidity
66373;SHT30;53168;51.146;17.120;2024-01-16T00:00:37;1.18;77.37
66373;SHT30;53168;51.146;17.120;2024-01-16T00:03:31;1.11;77.66
66373;SHT30;53168;51.146;17.120;2024-01-16T00:06:06;1.07;77.93
66373;SHT30;53168;51.146;17.120;2024-01-16T00:08:40;1.06;78.00
66373;SHT30;53168;51.146;17.120;2024-01-16T00:11:15;1.06;78.23
66373;SHT30;53168;51.146;17.120;2024-01-16T00:13:49;1.00;78.67
66373;SHT30;53168;51.146;17.120;2024-01-16T00:16:25;0.84;78.73
66373;SHT30;53168;51.146;17.120;2024-01-16T00:18:59;0.62;78.92
66373;SHT30;53168;51.146;17.120;2024-01-16T00:21:34;0.47;79.08
66373;SHT30;53168;51.146;17.120;2024-01-16T00:24:14;0.33;79.35
66373;SHT30;53168;51.146;17.120;2024-01-16T00:26:48;0.22;79.54
66373;SHT30;53168;51.146;17.120;2024-01-16T00:29:22;0.18;79.67
66373;SHT30;53168;51.146;17.120;2024-01-16T00:31:56;0.12;79.76
66373;SHT30;53168;51.146;17.120;2024-01-16T00:34:31;0.08;79.82
66373;SHT30;53168;51.146;17.120;2024-01-16T00:37:07;0.04;79.89
66373;SHT30;53168;51.146;17.120;2024-01-16T00:39:44;0.01;79.90
66373;SHT30;53168;51.146;17.120;2024-01-16T00:42:18;0.03;79.90
66373;SHT30;53168;51.146;17.120;2024-01-16T00:44:53;0.04;79.90
66373;SHT30;53168;51.146;17.120;2024-01-16T00:47:28;0.03;79.85
66373;SHT30;53168;51.146;17.120;2024-01-16T00:50:03;0.03;79.90
66373;SHT30;53168;51.146;17.120;2024-01-16T00:52:38;0.03;79.90
66373;SHT30;53168;51.146;17.120;2024-01-16T00:55:12;0.05;79.90
66373;SHT30;53168;51.146;17.120;2024-01-16T00:57:45;0.03;79.90
66373;SHT30;53168;51.146;17.120;2024-01-16T01:00:19;0.04;79.91
66373;SHT30;53168;51.146;17.120;2024-01-16T01:02:53;0.05;79.89
66373;SHT30;53168;51.146;17.120;2024-01-16T01:05:27;0.09;79.81
66373;SHT30;53168;51.146;17.120;2024-01-16T01:08:02;0.09;79.84
66373;SHT30;53168;51.146;17.120;2024-01-16T01:10:37;0.06;79.90
66373;SHT30;53168;51.146;17.120;2024-01-16T01:13:11;0.05;79.94
66373;SHT30;53168;51.146;17.120;2024-01-16T01:15:45;0.05;79.90
66373;SHT30;53168;51.146;17.120;2024-01-16T01:18:19;0.07;79.85
66373;SHT30;53168;51.146;17.120;2024-01-16T01:20:53;0.09;79.83
66373;SHT30;53168;51.146;17.120;2024-01-16T01:23:27;0.10;79.80
66373;SHT30;53168;51.146;17.120;2024-01-16T01:26:02;0.11;79.80
66373;SHT30;53168;51.146;17.120;2024-01-16T01:28:35;0.10;79.80
66373;SHT30;53168;51.146;17.120;2024-01-16T01:31:12;0.09;79.80
66373;SHT30;53168;51.146;17.120;2024-01-16T01:33:46;0.09;79.80
66373;SHT30;53168;51.146;17.120;2024-01-16T01:36:19;0.09;79.78
66373;SHT30;53168;51.146;17.120;2024-01-16T01:38:53;0.10;79.75
66373;SHT30;53168;51.146;17.120;2024-01-16T01:41:28;0.11;79.70
66373;SHT30;53168;51.146;17.120;2024-01-16T01:44:01;0.12;79.69
66373;SHT30;53168;51.146;17.120;2024-01-16T01:46:37;0.12;79.64
66373;SHT30;53168;51.146;17.120;2024-01-16T01:49:13;0.12;79.60
66373;SHT30;53168;51.146;17.120;2024-01-16T01:51:49;0.12;79.61
66373;SHT30;53168;51.146;17.120;2024-01-16T01:54:26;0.12;79.63
66373;SHT30;53168;51.146;17.120;2024-01-16T01:57:00;0.12;79.60
66373;SHT30;53168;51.146;17.120;2024-01-16T01:59:36;0.10;79.50
66373;SHT30;53168;51.146;17.120;2024-01-16T02:02:12;0.10;79.45
66373;SHT30;53168;51.146;17.120;2024-01-16T02:04:46;0.10;79.40
66373;SHT30;53168;51.146;17.120;2024-01-16T02:18:03;-0.18;79.27
66373;SHT30;53168;51.146;17.120;2024-01-16T02:20:37;-0.19;79.40
66373;SHT30;53168;51.146;17.120;2024-01-16T02:23:14;-0.19;79.48
66373;SHT30;53168;51.146;17.120;2024-01-16T02:25:50;-0.22;79.52
66373;SHT30;53168;51.146;17.120;2024-01-16T02:28:24;-0.24;79.61
66373;SHT30;53168;51.146;17.120;2024-01-16T02:30:58;-0.23;79.69
66373;SHT30;53168;51.146;17.120;2024-01-16T02:33:32;-0.23;79.78
66373;SHT30;53168;51.146;17.120;2024-01-16T02:36:07;-0.22;79.80
66373;SHT30;53168;51.146;17.120;2024-01-16T02:38:41;-0.21;79.86
66373;SHT30;53168;51.146;17.120;2024-01-16T02:41:17;-0.19;79.90
66373;SHT30;53168;51.146;17.120;2024-01-16T02:43:51;-0.17;79.90
66373;SHT30;53168;51.146;17.120;2024-01-16T02:46:25;-0.18;79.89
66373;SHT30;53168;51.146;17.120;2024-01-16T02:48:59;-0.17;79.81
66373;SHT30;53168;51.146;17.120;2024-01-16T02:51:34;-0.16;79.80
66373;SHT30;53168;51.146;17.120;2024-01-16T02:54:08;-0.14;79.80
66373;SHT30;53168;51.146;17.120;2024-01-16T02:56:42;-0.15;79.80
66373;SHT30;53168;51.146;17.120;2024-01-16T02:59:16;-0.12;79.75
66373;SHT30;53168;51.146;17.120;2024-01-16T03:01:50;-0.11;79.79
66373;SHT30;53168;51.146;17.120;2024-01-16T03:04:24;-0.12;79.81
66373;SHT30;53168;51.146;17.120;2024-01-16T03:06:58;-0.16;79.80
66373;SHT30;53168;51.146;17.120;2024-01-16T03:09:32;-0.19;79.80
66373;SHT30;53168;51.146;17.120;2024-01-16T03:12:06;-0.21;79.80
66373;SHT30;53168;51.146;17.120;2024-01-16T03:14:40;-0.25;79.80
66373;SHT30;53168;51.146;17.120;2024-01-16T03:17:14;-0.30;79.84
66373;SHT30;53168;51.146;17.120;2024-01-16T03:19:48;-0.35;79.94
66373;SHT30;53168;51.146;17.120;2024-01-16T03:22:22;-0.40;80.04
66373;SHT30;53168;51.146;17.120;2024-01-16T03:24:56;-0.44;80.12
66373;SHT30;53168;51.146;17.120;2024-01-16T03:27:30;-0.47;80.20
66373;SHT30;53168;51.146;17.120;2024-01-16T03:30:05;-0.49;80.29
66373;SHT30;53168;51.146;17.120;2024-01-16T03:32:40;-0.50;80.39
66373;SHT30;53168;51.146;17.120;2024-01-16T03:35:14;-0.51;80.44
66373;SHT30;53168;51.146;17.120;2024-01-16T03:37:48;-0.53;80.52
66373;SHT30;53168;51.146;17.120;2024-01-16T03:40:22;-0.54;80.57
66373;SHT30;53168;51.146;17.120;2024-01-16T03:42:56;-0.53;80.64
66373;SHT30;53168;51.146;17.120;2024-01-16T03:45:30;-0.55;80.70
66373;SHT30;53168;51.146;17.120;2024-01-16T03:48:05;-0.57;80.75
66373;SHT30;53168;51.146;17.120;2024-01-16T03:50:39;-0.60;80.78
66373;SHT30;53168;51.146;17.120;2024-01-16T03:53:15;-0.61;80.69
66373;SHT30;53168;51.146;17.120;2024-01-16T03:55:49;-0.64;80.64
66373;SHT30;53168;51.146;17.120;2024-01-16T03:58:23;-0.67;80.61
66373;SHT30;53168;51.146;17.120;2024-01-16T04:00:57;-0.69;80.60
66373;SHT30;53168;51.146;17.120;2024-01-16T04:03:31;-0.71;80.62
66373;SHT30;53168;51.146;17.120;2024-01-16T04:06:15;-0.72;80.63
66373;SHT30;53168;51.146;17.120;2024-01-16T04:08:50;-0.71;80.65
66373;SHT30;53168;51.146;17.120;2024-01-16T04:11:23;-0.74;80.60
66373;SHT30;53168;51.146;17.120;2024-01-16T04:13:57;-0.74;80.65
66373;SHT30;53168;51.146;17.120;2024-01-16T04:16:32;-0.75;80.70
66373;SHT30;53168;51.146;17.120;2024-01-16T04:19:06;-0.75;80.71
66373;SHT30;53168;51.146;17.120;2024-01-16T04:21:39;-0.74;80.70
66373;SHT30;53168;51.146;17.120;2024-01-16T04:24:13;-0.73;80.70
66373;SHT30;53168;51.146;17.120;2024-01-16T04:26:47;-0.70;80.73
66373;SHT30;53168;51.146;17.120;2024-01-16T04:29:21;-0.69;80.73
66373;SHT30;53168;51.146;17.120;2024-01-16T04:31:56;-0.67;80.77
66373;SHT30;53168;51.146;17.120;2024-01-16T04:34:30;-0.64;80.80
66373;SHT30;53168;51.146;17.120;2024-01-16T04:37:05;-0.63;80.80
66373;SHT30;53168;51.146;17.120;2024-01-16T04:39:39;-0.64;80.84
66373;SHT30;53168;51.146;17.120;2024-01-16T04:42:12;-0.64;80.90
66373;SHT30;53168;51.146;17.120;2024-01-16T04:44:48;-0.64;80.90
66373;SHT30;53168;51.146;17.120;2024-01-16T04:47:22;-0.61;80.96
66373;SHT30;53168;51.146;17.120;2024-01-16T04:49:56;-0.59;80.99
66373;SHT30;53168;51.146;17.120;2024-01-16T04:52:30;-0.58;80.97
66373;SHT30;53168;51.146;17.120;2024-01-16T04:55:05;-0.56;80.94
66373;SHT30;53168;51.146;17.120;2024-01-16T04:57:39;-0.56;80.96
66373;SHT30;53168;51.146;17.120;2024-01-16T05:00:14;-0.55;81.00
66373;SHT30;53168;51.146;17.120;2024-01-16T05:02:49;-0.55;81.03
66373;SHT30;53168;51.146;17.120;2024-01-16T05:05:23;-0.56;81.10
66373;SHT30;53168;51.146;17.120;2024-01-16T05:08:02;-0.56;81.14
66373;SHT30;53168;51.146;17.120;2024-01-16T05:10:36;-0.57;81.19
66373;SHT30;53168;51.146;17.120;2024-01-16T05:13:12;-0.58;81.21
66373;SHT30;53168;51.146;17.120;2024-01-16T05:15:45;-0.58;81.29
66373;SHT30;53168;51.146;17.120;2024-01-16T05:18:19;-0.61;81.33
66373;SHT30;53168;51.146;17.120;2024-01-16T05:20:53;-0.64;81.42
66373;SHT30;53168;51.146;17.120;2024-01-16T05:23:30;-0.65;81.50
66373;SHT30;53168;51.146;17.120;2024-01-16T05:26:04;-0.64;81.45
66373;SHT30;53168;51.146;17.120;2024-01-16T05:28:39;-0.65;81.42
66373;SHT30;53168;51.146;17.120;2024-01-16T05:31:13;-0.64;81.40
66373;SHT30;53168;51.146;17.120;2024-01-16T05:33:47;-0.63;81.40
66373;SHT30;53168;51.146;17.120;2024-01-16T05:36:21;-0.61;81.39
66373;SHT30;53168;51.146;17.120;2024-01-16T05:38:55;-0.58;81.40
66373;SHT30;53168;51.146;17.120;2024-01-16T05:41:33;-0.57;81.49
66373;SHT30;53168;51.146;17.120;2024-01-16T05:44:08;-0.57;81.50
66373;SHT30;53168;51.146;17.120;2024-01-16T05:46:43;-0.55;81.50
66373;SHT30;53168;51.146;17.120;2024-01-16T05:49:17;-0.54;81.50
66373;SHT30;53168;51.146;17.120;2024-01-16T05:51:51;-0.56;81.50
66373;SHT30;53168;51.146;17.120;2024-01-16T05:54:25;-0.57;81.55
66373;SHT30;53168;51.146;17.120;2024-01-16T05:56:59;-0.59;81.58
66373;SHT30;53168;51.146;17.120;2024-01-16T05:59:34;-0.58;81.62
66373;SHT30;53168;51.146;17.120;2024-01-16T06:02:08;-0.60;81.68
66373;SHT30;53168;51.146;17.120;2024-01-16T06:04:42;-0.63;81.72
66373;SHT30;53168;51.146;17.120;2024-01-16T06:07:17;-0.66;81.73
66373;SHT30;53168;51.146;17.120;2024-01-16T06:09:51;-0.67;81.80
66373;SHT30;53168;51.146;17.120;2024-01-16T06:12:24;-0.69;81.80
66373;SHT30;53168;51.146;17.120;2024-01-16T06:14:58;-0.70;81.84
66373;SHT30;53168;51.146;17.120;2024-01-16T06:17:32;-0.73;81.84
66373;SHT30;53168;51.146;17.120;2024-01-16T06:20:08;-0.77;81.80
66373;SHT30;53168;51.146;17.120;2024-01-16T06:22:43;-0.81;81.77
66373;SHT30;53168;51.146;17.120;2024-01-16T06:25:16;-0.85;81.76
66373;SHT30;53168;51.146;17.120;2024-01-16T06:27:51;-0.87;81.71
66373;SHT30;53168;51.146;17.120;2024-01-16T06:30:24;-0.90;81.70
66373;SHT30;53168;51.146;17.120;2024-01-16T06:32:58;-0.94;81.59
66373;SHT30;53168;51.146;17.120;2024-01-16T06:35:32;-1.01;81.49
66373;SHT30;53168;51.146;17.120;2024-01-16T06:38:06;-1.08;81.41
66373;SHT30;53168;51.146;17.120;2024-01-16T06:40:40;-1.15;81.36
66373;SHT30;53168;51.146;17.120;2024-01-16T06:43:15;-1.26;81.30
66373;SHT30;53168;51.146;17.120;2024-01-16T06:45:49;-1.35;81.30
66373;SHT30;53168;51.146;17.120;2024-01-16T06:48:24;-1.46;81.30
66373;SHT30;53168;51.146;17.120;2024-01-16T06:50:58;-1.57;81.30
66373;SHT30;53168;51.146;17.120;2024-01-16T06:53:33;-1.64;81.30
66373;SHT30;53168;51.146;17.120;2024-01-16T06:56:08;-1.69;81.38
66373;SHT30;53168;51.146;17.120;2024-01-16T06:58:42;-1.73;81.40
66373;SHT30;53168;51.146;17.120;2024-01-16T07:01:16;-1.73;81.40
66373;SHT30;53168;51.146;17.120;2024-01-16T07:03:50;-1.74;81.46
66373;SHT30;53168;51.146;17.120;2024-01-16T07:06:23;-1.71;81.50
66373;SHT30;53168;51.146;17.120;2024-01-16T07:08:57;-1.66;81.47
66373;SHT30;53168;51.146;17.120;2024-01-16T07:11:31;-1.61;81.40
66373;SHT30;53168;51.146;17.120;2024-01-16T07:14:06;-1.56;81.40
66373;SHT30;53168;51.146;17.120;2024-01-16T07:16:40;-1.51;81.36
66373;SHT30;53168;51.146;17.120;2024-01-16T07:19:14;-1.45;81.35
66373;SHT30;53168;51.146;17.120;2024-01-16T07:21:48;-1.40;81.30
66373;SHT30;53168;51.146;17.120;2024-01-16T07:24:22;-1.36;81.30
66373;SHT30;53168;51.146;17.120;2024-01-16T07:26:56;-1.31;81.27
66373;SHT30;53168;51.146;17.120;2024-01-16T07:29:30;-1.26;81.21
66373;SHT30;53168;51.146;17.120;2024-01-16T07:32:05;-1.20;81.20
66373;SHT30;53168;51.146;17.120;2024-01-16T07:34:42;-1.16;81.15
66373;SHT30;53168;51.146;17.120;2024-01-16T07:37:16;-1.12;81.10
66373;SHT30;53168;51.146;17.120;2024-01-16T07:39:52;-1.11;81.05
66373;SHT30;53168;51.146;17.120;2024-01-16T07:42:26;-1.09;81.07
66373;SHT30;53168;51.146;17.120;2024-01-16T07:45:06;-1.05;81.02
66373;SHT30;53168;51.146;17.120;2024-01-16T07:47:42;-1.02;81.00
66373;SHT30;53168;51.146;17.120;2024-01-16T07:50:16;-1.01;81.00
66373;SHT30;53168;51.146;17.120;2024-01-16T07:52:50;-0.99;80.94
66373;SHT30;53168;51.146;17.120;2024-01-16T07:55:24;-0.95;80.90
66373;SHT30;53168;51.146;17.120;2024-01-16T07:57:58;-0.83;80.90
66373;SHT30;53168;51.146;17.120;2024-01-16T08:00:35;-0.68;80.87
66373;SHT30;53168;51.146;17.120;2024-01-16T08:03:10;-0.54;80.74
66373;SHT30;53168;51.146;17.120;2024-01-16T08:05:45;-0.46;80.55
66373;SHT30;53168;51.146;17.120;2024-01-16T08:08:20;-0.44;80.40
66373;SHT30;53168;51.146;17.120;2024-01-16T08:10:54;-0.42;80.39
66373;SHT30;53168;51.146;17.120;2024-01-16T08:13:28;-0.38;80.40
66373;SHT30;53168;51.146;17.120;2024-01-16T08:16:02;-0.31;80.40
66373;SHT30;53168;51.146;17.120;2024-01-16T08:18:39;-0.23;80.31
66373;SHT30;53168;51.146;17.120;2024-01-16T08:21:13;-0.10;80.25
66373;SHT30;53168;51.146;17.120;2024-01-16T08:23:48;-0.06;80.05
66373;SHT30;53168;51.146;17.120;2024-01-16T08:26:22;-0.09;79.98
66373;SHT30;53168;51.146;17.120;2024-01-16T08:28:57;-0.10;79.91
66373;SHT30;53168;51.146;17.120;2024-01-16T08:31:31;-0.08;79.88
66373;SHT30;53168;51.146;17.120;2024-01-16T08:34:05;-0.07;79.83
66373;SHT30;53168;51.146;17.120;2024-01-16T08:36:39;-0.05;79.74
66373;SHT30;53168;51.146;17.120;2024-01-16T08:39:14;-0.04;79.70
66373;SHT30;53168;51.146;17.120;2024-01-16T08:41:48;-0.01;79.68
66373;SHT30;53168;51.146;17.120;2024-01-16T08:44:22;0.06;79.78
66373;SHT30;53168;51.146;17.120;2024-01-16T08:46:56;0.19;79.64
66373;SHT30;53168;51.146;17.120;2024-01-16T08:49:33;0.30;79.59
66373;SHT30;53168;51.146;17.120;2024-01-16T08:52:10;0.33;79.50
66373;SHT30;53168;51.146;17.120;2024-01-16T08:54:46;0.34;79.50
66373;SHT30;53168;51.146;17.120;2024-01-16T08:57:21;0.39;79.50
66373;SHT30;53168;51.146;17.120;2024-01-16T08:59:59;0.47;79.48
66373;SHT30;53168;51.146;17.120;2024-01-16T09:02:38;0.65;79.57
66373;SHT30;53168;51.146;17.120;2024-01-16T09:05:14;0.74;79.35
66373;SHT30;53168;51.146;17.120;2024-01-16T09:07:49;0.80;79.15
66373;SHT30;53168;51.146;17.120;2024-01-16T09:10:23;0.86;78.98
66373;SHT30;53168;51.146;17.120;2024-01-16T09:12:58;0.98;78.82
66373;SHT30;53168;51.146;17.120;2024-01-16T09:15:35;1.08;78.70
66373;SHT30;53168;51.146;17.120;2024-01-16T09:18:09;1.08;78.49
66373;SHT30;53168;51.146;17.120;2024-01-16T09:20:44;0.99;78.39
66373;SHT30;53168;51.146;17.120;2024-01-16T09:23:19;0.87;78.30
66373;SHT30;53168;51.146;17.120;2024-01-16T09:25:53;0.73;78.30
66373;SHT30;53168;51.146;17.120;2024-01-16T09:28:27;0.67;78.30
66373;SHT30;53168;51.146;17.120;2024-01-16T09:31:01;0.71;78.26
66373;SHT30;53168;51.146;17.120;2024-01-16T09:33:36;0.66;78.01
66373;SHT30;53168;51.146;17.120;2024-01-16T09:36:10;0.75;77.97
66373;SHT30;53168;51.146;17.120;2024-01-16T09:38:45;0.92;77.58
66373;SHT30;53168;51.146;17.120;2024-01-16T09:41:19;1.07;77.35
66373;SHT30;53168;51.146;17.120;2024-01-16T09:43:53;1.22;77.19
66373;SHT30;53168;51.146;17.120;2024-01-16T09:46:27;1.32;77.10
66373;SHT30;53168;51.146;17.120;2024-01-16T09:49:02;1.47;77.17
66373;SHT30;53168;51.146;17.120;2024-01-16T09:51:38;1.55;77.05
66373;SHT30;53168;51.146;17.120;2024-01-16T09:54:12;1.46;76.94
66373;SHT30;53168;51.146;17.120;2024-01-16T09:56:46;1.31;76.83
66373;SHT30;53168;51.146;17.120;2024-01-16T09:59:28;1.25;76.95
66373;SHT30;53168;51.146;17.120;2024-01-16T10:02:06;1.18;76.82
66373;SHT30;53168;51.146;17.120;2024-01-16T10:04:42;1.16;77.01
66373;SHT30;53168;51.146;17.120;2024-01-16T10:07:17;1.22;77.06
66373;SHT30;53168;51.146;17.120;2024-01-16T10:10:04;1.28;76.97
66373;SHT30;53168;51.146;17.120;2024-01-16T10:12:42;1.41;76.98
66373;SHT30;53168;51.146;17.120;2024-01-16T10:15:17;1.52;76.72
66373;SHT30;53168;51.146;17.120;2024-01-16T10:17:54;1.52;76.51
66373;SHT30;53168;51.146;17.120;2024-01-16T10:20:35;1.45;76.40
66373;SHT30;53168;51.146;17.120;2024-01-16T10:23:10;1.44;76.39
66373;SHT30;53168;51.146;17.120;2024-01-16T10:26:07;1.36;76.25
66373;SHT30;53168;51.146;17.120;2024-01-16T10:28:43;1.28;76.24
66373;SHT30;53168;51.146;17.120;2024-01-16T10:31:17;1.20;76.08
66373;SHT30;53168;51.146;17.120;2024-01-16T10:33:52;1.14;76.23
66373;SHT30;53168;51.146;17.120;2024-01-16T10:36:26;1.09;76.23
66373;SHT30;53168;51.146;17.120;2024-01-16T10:39:05;1.06;76.39
66373;SHT30;53168;51.146;17.120;2024-01-16T10:41:39;1.04;76.46
66373;SHT30;53168;51.146;17.120;2024-01-16T10:44:20;1.08;76.51
66373;SHT30;53168;51.146;17.120;2024-01-16T10:47:21;1.10;76.41
66373;SHT30;53168;51.146;17.120;2024-01-16T10:49:58;1.07;76.42
66373;SHT30;53168;51.146;17.120;2024-01-16T10:52:35;1.13;76.44
66373;SHT30;53168;51.146;17.120;2024-01-16T10:55:21;1.34;76.23
66373;SHT30;53168;51.146;17.120;2024-01-16T10:57:58;1.50;75.92
66373;SHT30;53168;51.146;17.120;2024-01-16T11:00:39;1.43;75.74
66373;SHT30;53168;51.146;17.120;2024-01-16T11:03:24;1.37;75.92
66373;SHT30;53168;51.146;17.120;2024-01-16T11:06:02;1.25;75.82
66373;SHT30;53168;51.146;17.120;2024-01-16T11:08:41;1.09;75.76
66373;SHT30;53168;51.146;17.120;2024-01-16T11:11:17;0.96;75.68
66373;SHT30;53168;51.146;17.120;2024-01-16T11:13:52;0.95;75.85
66373;SHT30;53168;51.146;17.120;2024-01-16T11:16:30;1.06;75.82
66373;SHT30;53168;51.146;17.120;2024-01-16T11:19:09;1.18;75.82
66373;SHT30;53168;51.146;17.120;2024-01-16T11:22:04;1.34;75.92
66373;SHT30;53168;51.146;17.120;2024-01-16T11:24:38;1.56;75.90
66373;SHT30;53168;51.146;17.120;2024-01-16T11:27:23;1.83;75.66
66373;SHT30;53168;51.146;17.120;2024-01-16T11:29:57;2.06;75.43
66373;SHT30;53168;51.146;17.120;2024-01-16T11:32:37;2.13;75.11
66373;SHT30;53168;51.146;17.120;2024-01-16T11:35:12;2.21;75.04
66373;SHT30;53168;51.146;17.120;2024-01-16T11:38:06;2.15;74.79
66373;SHT30;53168;51.146;17.120;2024-01-16T11:40:41;2.01;74.70
66373;SHT30;53168;51.146;17.120;2024-01-16T11:43:35;1.80;74.55
66373;SHT30;53168;51.146;17.120;2024-01-16T11:46:10;1.61;74.95
66373;SHT30;53168;51.146;17.120;2024-01-16T11:49:03;1.47;75.19
66373;SHT30;53168;51.146;17.120;2024-01-16T11:51:42;1.32;75.36
66373;SHT30;53168;51.146;17.120;2024-01-16T11:54:17;1.18;75.60
66373;SHT30;53168;51.146;17.120;2024-01-16T11:57:12;1.08;75.84
66373;SHT30;53168;51.146;17.120;2024-01-16T12:00:04;0.90;76.02
66373;SHT30;53168;51.146;17.120;2024-01-16T12:02:51;0.66;76.19
66373;SHT30;53168;51.146;17.120;2024-01-16T12:05:30;0.52;76.59
66373;SHT30;53168;51.146;17.120;2024-01-16T12:08:04;0.50;76.85
66373;SHT30;53168;51.146;17.120;2024-01-16T12:10:47;0.57;76.99
66373;SHT30;53168;51.146;17.120;2024-01-16T12:13:21;0.52;77.05
66373;SHT30;53168;51.146;17.120;2024-01-16T12:16:02;0.45;77.22
66373;SHT30;53168;51.146;17.120;2024-01-16T12:18:36;0.43;77.40
66373;SHT30;53168;51.146;17.120;2024-01-16T12:21:15;0.34;77.43
66373;SHT30;53168;51.146;17.120;2024-01-16T12:23:51;0.23;77.59
66373;SHT30;53168;51.146;17.120;2024-01-16T12:26:39;0.12;77.74
66373;SHT30;53168;51.146;17.120;2024-01-16T12:29:14;0.09;77.92
66373;SHT30;53168;51.146;17.120;2024-01-16T12:31:51;0.07;77.99
66373;SHT30;53168;51.146;17.120;2024-01-16T12:34:47;0.10;78.05
66373;SHT30;53168;51.146;17.120;2024-01-16T12:37:22;0.20;78.11
66373;SHT30;53168;51.146;17.120;2024-01-16T12:39:56;0.28;78.06
66373;SHT30;53168;51.146;17.120;2024-01-16T12:42:30;0.33;78.00
66373;SHT30;53168;51.146;17.120;2024-01-16T12:45:09;0.37;78.00
66373;SHT30;53168;51.146;17.120;2024-01-16T12:47:45;0.43;78.05
66373;SHT30;53168;51.146;17.120;2024-01-16T12:50:26;0.47;77.93
66373;SHT30;53168;51.146;17.120;2024-01-16T12:53:06;0.52;77.91
66373;SHT30;53168;51.146;17.120;2024-01-16T12:55:41;0.54;77.88
66373;SHT30;53168;51.146;17.120;2024-01-16T12:58:21;0.53;77.90
66373;SHT30;53168;51.146;17.120;2024-01-16T13:00:56;0.53;77.92
66373;SHT30;53168;51.146;17.120;2024-01-16T13:04:06;0.48;77.99
66373;SHT30;53168;51.146;17.120;2024-01-16T13:06:40;0.51;78.08
66373;SHT30;53168;51.146;17.120;2024-01-16T13:09:15;0.62;78.03
66373;SHT30;53168;51.146;17.120;2024-01-16T13:11:52;0.73;77.91
66373;SHT30;53168;51.146;17.120;2024-01-16T13:14:29;0.85;77.76
66373;SHT30;53168;51.146;17.120;2024-01-16T13:17:04;1.03;77.60
66373;SHT30;53168;51.146;17.120;2024-01-16T13:19:42;1.25;77.34
66373;SHT30;53168;51.146;17.120;2024-01-16T13:22:16;1.50;77.03
66373;SHT30;53168;51.146;17.120;2024-01-16T13:25:00;1.68;76.50
66373;SHT30;53168;51.146;17.120;2024-01-16T13:27:39;1.77;76.37
66373;SHT30;53168;51.146;17.120;2024-01-16T13:30:13;1.78;76.36
66373;SHT30;53168;51.146;17.120;2024-01-16T13:32:50;1.56;76.28
66373;SHT30;53168;51.146;17.120;2024-01-16T13:35:24;1.30;76.37
66373;SHT30;53168;51.146;17.120;2024-01-16T13:37:58;1.09;76.63
66373;SHT30;53168;51.146;17.120;2024-01-16T13:40:33;0.93;76.78
66373;SHT30;53168;51.146;17.120;2024-01-16T13:43:08;0.81;76.90
66373;SHT30;53168;51.146;17.120;2024-01-16T13:45:42;0.70;76.95
66373;SHT30;53168;51.146;17.120;2024-01-16T13:48:20;0.58;77.03
66373;SHT30;53168;51.146;17.120;2024-01-16T13:50:55;0.48;77.17
66373;SHT30;53168;51.146;17.120;2024-01-16T13:53:29;0.43;77.28
66373;SHT30;53168;51.146;17.120;2024-01-16T13:56:04;0.42;77.35
66373;SHT30;53168;51.146;17.120;2024-01-16T13:58:39;0.41;77.35
66373;SHT30;53168;51.146;17.120;2024-01-16T14:01:13;0.37;77.29
66373;SHT30;53168;51.146;17.120;2024-01-16T14:03:47;0.31;77.30
66373;SHT30;53168;51.146;17.120;2024-01-16T14:06:21;0.26;77.32
66373;SHT30;53168;51.146;17.120;2024-01-16T14:09:15;0.27;77.46
66373;SHT30;53168;51.146;17.120;2024-01-16T14:11:50;0.29;77.49
66373;SHT30;53168;51.146;17.120;2024-01-16T14:14:30;0.30;77.45
66373;SHT30;53168;51.146;17.120;2024-01-16T14:17:05;0.34;77.50
66373;SHT30;53168;51.146;17.120;2024-01-16T14:19:39;0.34;77.50
66373;SHT30;53168;51.146;17.120;2024-01-16T14:22:13;0.35;77.50
66373;SHT30;53168;51.146;17.120;2024-01-16T14:24:47;0.31;77.51
66373;SHT30;53168;51.146;17.120;2024-01-16T14:27:22;0.25;77.62
66373;SHT30;53168;51.146;17.120;2024-01-16T14:29:56;0.19;77.65
66373;SHT30;53168;51.146;17.120;2024-01-16T14:32:30;0.18;77.79
66373;SHT30;53168;51.146;17.120;2024-01-16T14:35:05;0.18;77.84
66373;SHT30;53168;51.146;17.120;2024-01-16T14:37:41;0.19;77.90
66373;SHT30;53168;51.146;17.120;2024-01-16T14:40:16;0.19;77.95
66373;SHT30;53168;51.146;17.120;2024-01-16T14:42:56;0.17;78.00
66373;SHT30;53168;51.146;17.120;2024-01-16T14:45:35;0.12;77.99
66373;SHT30;53168;51.146;17.120;2024-01-16T14:48:09;0.08;78.01
66373;SHT30;53168;51.146;17.120;2024-01-16T14:50:45;0.06;78.14
66373;SHT30;53168;51.146;17.120;2024-01-16T14:53:20;0.07;78.20
66373;SHT30;53168;51.146;17.120;2024-01-16T14:55:54;0.07;78.25
66373;SHT30;53168;51.146;17.120;2024-01-16T14:58:28;0.07;78.27
66373;SHT30;53168;51.146;17.120;2024-01-16T15:01:03;0.05;78.32
66373;SHT30;53168;51.146;17.120;2024-01-16T15:03:40;0.04;78.38
66373;SHT30;53168;51.146;17.120;2024-01-16T15:06:14;0.02;78.50
66373;SHT30;53168;51.146;17.120;2024-01-16T15:08:48;0.00;78.47
66373;SHT30;53168;51.146;17.120;2024-01-16T15:11:22;-0.03;78.50
66373;SHT30;53168;51.146;17.120;2024-01-16T15:13:56;-0.07;78.59
66373;SHT30;53168;51.146;17.120;2024-01-16T15:16:30;-0.13;78.60
66373;SHT30;53168;51.146;17.120;2024-01-16T15:19:04;-0.19;78.62
66373;SHT30;53168;51.146;17.120;2024-01-16T15:21:39;-0.26;78.67
66373;SHT30;53168;51.146;17.120;2024-01-16T15:24:14;-0.33;78.72
66373;SHT30;53168;51.146;17.120;2024-01-16T15:26:52;-0.39;78.80
66373;SHT30;53168;51.146;17.120;2024-01-16T15:29:27;-0.46;78.85
66373;SHT30;53168;51.146;17.120;2024-01-16T15:32:01;-0.55;78.89
66373;SHT30;53168;51.146;17.120;2024-01-16T15:34:37;-0.65;78.90
66373;SHT30;53168;51.146;17.120;2024-01-16T15:37:11;-0.79;78.92
66373;SHT30;53168;51.146;17.120;2024-01-16T15:39:45;-0.88;79.03
66373;SHT30;53168;51.146;17.120;2024-01-16T15:42:19;-0.98;79.11
66373;SHT30;53168;51.146;17.120;2024-01-16T15:44:53;-1.08;79.20
66373;SHT30;53168;51.146;17.120;2024-01-16T15:47:27;-1.18;79.21
66373;SHT30;53168;51.146;17.120;2024-01-16T15:50:01;-1.29;79.29
66373;SHT30;53168;51.146;17.120;2024-01-16T15:52:37;-1.39;79.31
66373;SHT30;53168;51.146;17.120;2024-01-16T15:55:12;-1.49;79.39
66373;SHT30;53168;51.146;17.120;2024-01-16T15:57:46;-1.56;79.53
66373;SHT30;53168;51.146;17.120;2024-01-16T16:00:20;-1.63;79.70
66373;SHT30;53168;51.146;17.120;2024-01-16T16:02:54;-1.66;79.85
66373;SHT30;53168;51.146;17.120;2024-01-16T16:05:30;-1.70;79.94
66373;SHT30;53168;51.146;17.120;2024-01-16T16:08:05;-1.72;80.09
66373;SHT30;53168;51.146;17.120;2024-01-16T16:10:41;-1.77;80.17
66373;SHT30;53168;51.146;17.120;2024-01-16T16:13:16;-1.79;80.26
66373;SHT30;53168;51.146;17.120;2024-01-16T16:15:50;-1.82;80.36
66373;SHT30;53168;51.146;17.120;2024-01-16T16:18:24;-1.87;80.41
66373;SHT30;53168;51.146;17.120;2024-01-16T16:20:59;-1.91;80.41
66373;SHT30;53168;51.146;17.120;2024-01-16T16:23:33;-1.98;80.40
66373;SHT30;53168;51.146;17.120;2024-01-16T16:26:09;-2.07;80.40